Aviation Digital Data Service (ADDS)

Output produced by METARs form (1347 UTC 09 December 2019)
found at http://aviationweather.gov/metar/data/
 
KRYY 091250Z VRB04KT 10SM OVC019 08/01 A3009 RMK AO2 RAB19E44 SLP910 T00780011 PNO $
KRYY 091130Z 0912/1012 10012G16KT P6SM VCSH OVC020 
     TEMPO 0912/0914 6SM -RADZ BR SCT008 OVC015 
     FM091400 12008KT 6SM -RADZ BR SCT005 OVC010 
     FM091600 14008KT 5SM -RADZ BR OVC004 
     FM091900 19009KT P6SM BKN010 OVC015 
     FM100100 20006KT P6SM BKN030 
     FM100800 20008KT P6SM VCSH OVC012
       
KPUJ 091335Z AUTO 15007KT 10SM OVC014 08/04 A3005 RMK AO2
KCNI 091330Z AUTO 09006KT 10SM OVC016 06/02 A3009 RMK AO2
KPDK 091253Z 06003KT 10SM OVC016 07/03 A3008 RMK AO2 RAB09E28 SLP192 P0002 T00670028
KPDK 091130Z 0912/1012 09006KT P6SM VCSH OVC020 
     TEMPO 0912/0914 6SM -RADZ BR SCT008 OVC015 
     FM091400 12007KT 6SM -RADZ BR SCT005 OVC010 
     FM091600 17006KT 5SM -RADZ BR OVC004 
     FM091900 19006KT P6SM BKN010 OVC015 
     FM100100 20007KT P6SM BKN030 
     FM100800 21008KT P6SM VCSH OVC012
       
KRMG 091253Z AUTO 13005KT 10SM OVC022 11/02 A3003 RMK AO2 SLP166 T01060022
KATL 091314Z 10007KT 10SM -RA OVC014 09/03 A3008 RMK AO2 RAB12 P0000 T00940028
KATL 091130Z 0912/1018 11010KT P6SM VCSH OVC015 
     TEMPO 0912/0914 6SM -RADZ BR SCT008 OVC010 
     FM091400 14009KT 6SM -RADZ BR SCT005 OVC010 
     FM091600 17008KT 5SM -RADZ BR OVC004 
     FM091900 19009KT P6SM BKN010 OVC015 
     FM092200 21008KT P6SM BKN030 
     FM100800 20008KT P6SM VCSH OVC010
       
KFFC 091253Z AUTO 11004KT 10SM -RA OVC014 11/07 A3008 RMK AO2 RAB1154 SLP186 P0001 T01060072
KGAD 091256Z AUTO 08003KT 10SM OVC013 12/09 A3000 RMK AO2 RAB39E50 SLP163 P0000 T01170089
KCHA 091253Z 18007KT 10SM OVC024 11/03 A3001 RMK AO2 SLP161 T01060033
KCHA 091139Z 0912/1012 16005KT P6SM OVC025 WS020/17041KT 
     FM091700 19012G20KT P6SM OVC020 
     FM100100 19007KT P6SM VCSH SCT007 OVC012 
     FM100400 20005KT 5SM -SHRA BKN007 OVC012
       
KDNN 091335Z AUTO 16004KT 10SM OVC023 10/03 A3005 RMK AO2
KAHN 091251Z 08005KT 10SM OVC014 07/M01 A3012 RMK AO2 SLP201 T00721006
KAHN 091130Z 0912/1012 07008KT P6SM VCSH OVC020 
     TEMPO 0912/0914 6SM -RA BR SCT008 OVC015 
     FM091400 09006KT 5SM -RADZ BR SCT005 OVC010 
     FM091600 11005KT 4SM -RADZ BR OVC004 
     FM092100 18005KT P6SM SCT005 OVC015 
     FM100500 19005KT P6SM BKN030 
     FM101000 21008KT P6SM VCSH OVC015
       
KLZU 091256Z 07007KT 10SM OVC017 07/01 A3010 RMK AO2 RAE01B36E49 SLP205 P0000 T00670011